Weather & Traffic



KLGB 190853Z 00000KT 10SM CLR 15/12 A2996 RMK AO2 SLP145 T01500117 58002


TAF KLGB 190527Z 1906/2006 VRB03KT P6SM SKC FM191000 VRB03KT 6SM BR BKN008 FM191600 VRB03KT 6SM BR OVC012 FM191800 20007KT P6SM SKC FM200000 29008KT P6SM SKC FM200400 VRB03KT P6SM SKC